sensor_id;sensor_type;location;lat;lon;timestamp;temperature;humidity
18876;DHT22;9570;50.854;13.778;2024-01-06T00:02:07;3.70;99.90
18876;DHT22;9570;50.854;13.778;2024-01-06T00:04:33;3.70;99.90
18876;DHT22;9570;50.854;13.778;2024-01-06T00:06:58;3.60;99.90
18876;DHT22;9570;50.854;13.778;2024-01-06T00:09:24;3.60;99.90
18876;DHT22;9570;50.854;13.778;2024-01-06T00:11:49;3.60;99.90
18876;DHT22;9570;50.854;13.778;2024-01-06T00:14:15;3.60;99.90
18876;DHT22;9570;50.854;13.778;2024-01-06T00:16:40;3.50;99.90
18876;DHT22;9570;50.854;13.778;2024-01-06T00:19:06;3.50;99.90
18876;DHT22;9570;50.854;13.778;2024-01-06T00:21:31;3.40;99.90
18876;DHT22;9570;50.854;13.778;2024-01-06T00:23:57;3.40;99.90
18876;DHT22;9570;50.854;13.778;2024-01-06T00:26:22;3.50;99.90
18876;DHT22;9570;50.854;13.778;2024-01-06T00:28:48;3.30;99.90
18876;DHT22;9570;50.854;13.778;2024-01-06T00:31:17;3.30;99.90
18876;DHT22;9570;50.854;13.778;2024-01-06T00:33:43;3.30;99.90
18876;DHT22;9570;50.854;13.778;2024-01-06T00:36:09;3.30;99.90
18876;DHT22;9570;50.854;13.778;2024-01-06T00:38:35;3.30;99.90
18876;DHT22;9570;50.854;13.778;2024-01-06T00:41:01;3.30;99.90
18876;DHT22;9570;50.854;13.778;2024-01-06T00:43:26;3.20;99.90
18876;DHT22;9570;50.854;13.778;2024-01-06T00:45:52;3.20;99.90
18876;DHT22;9570;50.854;13.778;2024-01-06T00:48:18;3.20;99.90
18876;DHT22;9570;50.854;13.778;2024-01-06T00:50:43;3.20;99.90
18876;DHT22;9570;50.854;13.778;2024-01-06T00:53:09;3.10;99.90
18876;DHT22;9570;50.854;13.778;2024-01-06T00:55:34;3.20;99.90
18876;DHT22;9570;50.854;13.778;2024-01-06T00:58:00;3.10;99.90
18876;DHT22;9570;50.854;13.778;2024-01-06T01:00:25;3.10;99.90
18876;DHT22;9570;50.854;13.778;2024-01-06T01:02:52;3.10;99.90
18876;DHT22;9570;50.854;13.778;2024-01-06T01:05:18;3.10;99.90
18876;DHT22;9570;50.854;13.778;2024-01-06T01:07:43;3.00;99.90
18876;DHT22;9570;50.854;13.778;2024-01-06T01:10:09;3.10;99.90
18876;DHT22;9570;50.854;13.778;2024-01-06T01:12:35;3.00;99.90
18876;DHT22;9570;50.854;13.778;2024-01-06T01:15:00;3.00;99.90
18876;DHT22;9570;50.854;13.778;2024-01-06T01:17:26;3.00;99.90
18876;DHT22;9570;50.854;13.778;2024-01-06T01:19:51;2.90;99.90
18876;DHT22;9570;50.854;13.778;2024-01-06T01:22:17;2.90;99.90
18876;DHT22;9570;50.854;13.778;2024-01-06T01:24:42;2.90;99.90
18876;DHT22;9570;50.854;13.778;2024-01-06T01:27:08;2.90;99.90
18876;DHT22;9570;50.854;13.778;2024-01-06T01:29:34;2.80;99.90
18876;DHT22;9570;50.854;13.778;2024-01-06T01:31:59;2.80;99.90
18876;DHT22;9570;50.854;13.778;2024-01-06T01:34:25;2.80;99.90
18876;DHT22;9570;50.854;13.778;2024-01-06T01:36:50;2.80;99.90
18876;DHT22;9570;50.854;13.778;2024-01-06T01:39:16;2.80;99.90
18876;DHT22;9570;50.854;13.778;2024-01-06T01:41:42;2.70;99.90
18876;DHT22;9570;50.854;13.778;2024-01-06T01:44:07;2.70;99.90
18876;DHT22;9570;50.854;13.778;2024-01-06T01:46:33;2.60;99.90
18876;DHT22;9570;50.854;13.778;2024-01-06T01:49:00;2.70;99.90
18876;DHT22;9570;50.854;13.778;2024-01-06T01:51:30;2.60;99.90
18876;DHT22;9570;50.854;13.778;2024-01-06T01:54:03;2.60;99.90
18876;DHT22;9570;50.854;13.778;2024-01-06T01:56:30;2.60;99.90
18876;DHT22;9570;50.854;13.778;2024-01-06T01:59:01;2.60;99.90
18876;DHT22;9570;50.854;13.778;2024-01-06T02:01:28;2.60;99.90
18876;DHT22;9570;50.854;13.778;2024-01-06T02:03:54;2.60;99.90
18876;DHT22;9570;50.854;13.778;2024-01-06T02:06:20;2.50;99.90
18876;DHT22;9570;50.854;13.778;2024-01-06T02:08:45;2.50;99.90
18876;DHT22;9570;50.854;13.778;2024-01-06T02:11:11;2.50;99.90
18876;DHT22;9570;50.854;13.778;2024-01-06T02:13:37;2.50;99.90
18876;DHT22;9570;50.854;13.778;2024-01-06T02:16:04;2.50;99.90
18876;DHT22;9570;50.854;13.778;2024-01-06T02:18:30;2.50;99.90
18876;DHT22;9570;50.854;13.778;2024-01-06T02:20:58;2.40;99.90
18876;DHT22;9570;50.854;13.778;2024-01-06T02:23:24;2.40;99.90
18876;DHT22;9570;50.854;13.778;2024-01-06T02:25:50;2.30;99.90
18876;DHT22;9570;50.854;13.778;2024-01-06T02:28:15;2.40;99.90
18876;DHT22;9570;50.854;13.778;2024-01-06T02:30:41;2.30;99.90
18876;DHT22;9570;50.854;13.778;2024-01-06T02:33:06;2.30;99.90
18876;DHT22;9570;50.854;13.778;2024-01-06T02:35:32;2.20;99.90
18876;DHT22;9570;50.854;13.778;2024-01-06T02:37:57;2.20;99.90
18876;DHT22;9570;50.854;13.778;2024-01-06T02:40:23;2.30;99.90
18876;DHT22;9570;50.854;13.778;2024-01-06T02:42:48;2.20;99.90
18876;DHT22;9570;50.854;13.778;2024-01-06T02:45:13;2.20;99.90
18876;DHT22;9570;50.854;13.778;2024-01-06T02:47:39;2.20;99.90
18876;DHT22;9570;50.854;13.778;2024-01-06T02:50:05;2.20;99.90
18876;DHT22;9570;50.854;13.778;2024-01-06T02:52:31;2.20;99.90
18876;DHT22;9570;50.854;13.778;2024-01-06T02:54:56;2.10;99.90
18876;DHT22;9570;50.854;13.778;2024-01-06T02:57:22;2.10;99.90
18876;DHT22;9570;50.854;13.778;2024-01-06T02:59:47;2.10;99.90
18876;DHT22;9570;50.854;13.778;2024-01-06T03:02:13;2.10;99.90
18876;DHT22;9570;50.854;13.778;2024-01-06T03:04:38;2.00;99.90
18876;DHT22;9570;50.854;13.778;2024-01-06T03:07:04;2.00;99.90
18876;DHT22;9570;50.854;13.778;2024-01-06T03:09:29;2.00;99.90
18876;DHT22;9570;50.854;13.778;2024-01-06T03:11:55;2.00;99.90
18876;DHT22;9570;50.854;13.778;2024-01-06T03:14:20;2.00;99.90
18876;DHT22;9570;50.854;13.778;2024-01-06T03:16:46;2.00;99.90
18876;DHT22;9570;50.854;13.778;2024-01-06T03:19:11;2.00;99.90
18876;DHT22;9570;50.854;13.778;2024-01-06T03:21:37;2.00;99.90
18876;DHT22;9570;50.854;13.778;2024-01-06T03:24:04;1.90;99.90
18876;DHT22;9570;50.854;13.778;2024-01-06T03:26:29;1.90;99.90
18876;DHT22;9570;50.854;13.778;2024-01-06T03:28:55;1.90;99.90
18876;DHT22;9570;50.854;13.778;2024-01-06T03:31:20;1.90;99.90
18876;DHT22;9570;50.854;13.778;2024-01-06T03:33:47;2.00;99.90
18876;DHT22;9570;50.854;13.778;2024-01-06T03:36:13;2.00;99.90
18876;DHT22;9570;50.854;13.778;2024-01-06T03:38:41;2.00;99.90
18876;DHT22;9570;50.854;13.778;2024-01-06T03:41:06;1.90;99.90
18876;DHT22;9570;50.854;13.778;2024-01-06T03:43:32;2.00;99.90
18876;DHT22;9570;50.854;13.778;2024-01-06T03:45:57;2.00;99.90
18876;DHT22;9570;50.854;13.778;2024-01-06T03:48:25;2.00;99.90
18876;DHT22;9570;50.854;13.778;2024-01-06T03:50:50;1.90;99.90
18876;DHT22;9570;50.854;13.778;2024-01-06T03:53:16;1.90;99.90
18876;DHT22;9570;50.854;13.778;2024-01-06T03:55:41;1.90;99.90
18876;DHT22;9570;50.854;13.778;2024-01-06T03:58:07;1.90;99.90
18876;DHT22;9570;50.854;13.778;2024-01-06T04:00:32;1.90;99.90
18876;DHT22;9570;50.854;13.778;2024-01-06T04:02:58;1.80;99.90
18876;DHT22;9570;50.854;13.778;2024-01-06T04:05:23;1.90;99.90
18876;DHT22;9570;50.854;13.778;2024-01-06T04:07:49;1.80;99.90
18876;DHT22;9570;50.854;13.778;2024-01-06T04:10:14;1.80;99.90
18876;DHT22;9570;50.854;13.778;2024-01-06T04:12:40;1.80;99.90
18876;DHT22;9570;50.854;13.778;2024-01-06T04:15:05;1.80;99.90
18876;DHT22;9570;50.854;13.778;2024-01-06T04:17:31;1.80;99.90
18876;DHT22;9570;50.854;13.778;2024-01-06T04:19:56;1.80;99.90
18876;DHT22;9570;50.854;13.778;2024-01-06T04:22:22;1.80;99.90
18876;DHT22;9570;50.854;13.778;2024-01-06T04:24:47;1.80;99.90
18876;DHT22;9570;50.854;13.778;2024-01-06T04:27:13;1.70;99.90
18876;DHT22;9570;50.854;13.778;2024-01-06T04:29:38;1.70;99.90
18876;DHT22;9570;50.854;13.778;2024-01-06T04:32:04;1.70;99.90
18876;DHT22;9570;50.854;13.778;2024-01-06T04:34:30;1.70;99.90
18876;DHT22;9570;50.854;13.778;2024-01-06T04:36:55;1.70;99.90
18876;DHT22;9570;50.854;13.778;2024-01-06T04:39:21;1.60;99.90
18876;DHT22;9570;50.854;13.778;2024-01-06T04:41:46;1.60;99.90
18876;DHT22;9570;50.854;13.778;2024-01-06T04:44:12;1.60;99.90
18876;DHT22;9570;50.854;13.778;2024-01-06T04:46:37;1.60;99.90
18876;DHT22;9570;50.854;13.778;2024-01-06T04:49:03;1.60;99.90
18876;DHT22;9570;50.854;13.778;2024-01-06T04:51:28;1.60;99.90
18876;DHT22;9570;50.854;13.778;2024-01-06T04:53:54;1.60;99.90
18876;DHT22;9570;50.854;13.778;2024-01-06T04:56:19;1.60;99.90
18876;DHT22;9570;50.854;13.778;2024-01-06T04:58:45;1.60;99.90
18876;DHT22;9570;50.854;13.778;2024-01-06T05:01:10;1.60;99.90
18876;DHT22;9570;50.854;13.778;2024-01-06T05:03:36;1.60;99.90
18876;DHT22;9570;50.854;13.778;2024-01-06T05:06:01;1.60;99.90
18876;DHT22;9570;50.854;13.778;2024-01-06T05:08:27;1.60;99.90
18876;DHT22;9570;50.854;13.778;2024-01-06T05:10:53;1.60;99.90
18876;DHT22;9570;50.854;13.778;2024-01-06T05:13:19;1.50;99.90
18876;DHT22;9570;50.854;13.778;2024-01-06T05:15:44;1.50;99.90
18876;DHT22;9570;50.854;13.778;2024-01-06T05:18:10;1.50;99.90
18876;DHT22;9570;50.854;13.778;2024-01-06T05:20:35;1.50;99.90
18876;DHT22;9570;50.854;13.778;2024-01-06T05:23:01;1.60;99.90
18876;DHT22;9570;50.854;13.778;2024-01-06T05:25:26;1.50;99.90
18876;DHT22;9570;50.854;13.778;2024-01-06T05:27:52;1.60;99.90
18876;DHT22;9570;50.854;13.778;2024-01-06T05:30:17;1.50;99.90
18876;DHT22;9570;50.854;13.778;2024-01-06T05:32:43;1.60;99.90
18876;DHT22;9570;50.854;13.778;2024-01-06T05:35:09;1.50;99.90
18876;DHT22;9570;50.854;13.778;2024-01-06T05:37:34;1.60;99.90
18876;DHT22;9570;50.854;13.778;2024-01-06T05:40:01;1.50;99.90
18876;DHT22;9570;50.854;13.778;2024-01-06T05:42:29;1.70;99.90
18876;DHT22;9570;50.854;13.778;2024-01-06T05:44:54;1.50;99.90
18876;DHT22;9570;50.854;13.778;2024-01-06T05:47:20;1.50;99.90
18876;DHT22;9570;50.854;13.778;2024-01-06T05:49:45;1.50;99.90
18876;DHT22;9570;50.854;13.778;2024-01-06T05:52:11;1.50;99.90
18876;DHT22;9570;50.854;13.778;2024-01-06T05:54:40;1.50;99.90
18876;DHT22;9570;50.854;13.778;2024-01-06T05:57:06;1.50;99.90
18876;DHT22;9570;50.854;13.778;2024-01-06T05:59:33;1.50;99.90
18876;DHT22;9570;50.854;13.778;2024-01-06T06:01:58;1.50;99.90
18876;DHT22;9570;50.854;13.778;2024-01-06T06:04:24;1.60;99.90
18876;DHT22;9570;50.854;13.778;2024-01-06T06:06:49;1.60;99.90
18876;DHT22;9570;50.854;13.778;2024-01-06T06:09:15;1.60;99.90
18876;DHT22;9570;50.854;13.778;2024-01-06T06:11:40;1.60;99.90
18876;DHT22;9570;50.854;13.778;2024-01-06T06:14:06;1.70;99.90
18876;DHT22;9570;50.854;13.778;2024-01-06T06:16:31;1.70;99.90
18876;DHT22;9570;50.854;13.778;2024-01-06T06:18:57;1.70;99.90
18876;DHT22;9570;50.854;13.778;2024-01-06T06:21:23;1.70;99.90
18876;DHT22;9570;50.854;13.778;2024-01-06T06:23:49;1.70;99.90
18876;DHT22;9570;50.854;13.778;2024-01-06T06:26:15;1.70;99.90
18876;DHT22;9570;50.854;13.778;2024-01-06T06:28:41;1.80;99.90
18876;DHT22;9570;50.854;13.778;2024-01-06T06:31:07;1.80;99.90
18876;DHT22;9570;50.854;13.778;2024-01-06T06:33:32;1.90;99.90
18876;DHT22;9570;50.854;13.778;2024-01-06T06:36:00;1.90;99.90
18876;DHT22;9570;50.854;13.778;2024-01-06T06:38:27;1.80;99.90
18876;DHT22;9570;50.854;13.778;2024-01-06T06:40:52;1.90;99.90
18876;DHT22;9570;50.854;13.778;2024-01-06T06:43:18;1.90;99.90
18876;DHT22;9570;50.854;13.778;2024-01-06T06:45:43;1.90;99.90
18876;DHT22;9570;50.854;13.778;2024-01-06T06:48:09;2.00;99.90
18876;DHT22;9570;50.854;13.778;2024-01-06T06:50:34;2.00;99.90
18876;DHT22;9570;50.854;13.778;2024-01-06T06:53:00;2.00;99.90
18876;DHT22;9570;50.854;13.778;2024-01-06T06:55:26;2.00;99.90
18876;DHT22;9570;50.854;13.778;2024-01-06T06:57:52;1.90;99.90
18876;DHT22;9570;50.854;13.778;2024-01-06T07:00:18;2.00;99.90
18876;DHT22;9570;50.854;13.778;2024-01-06T07:02:44;2.00;99.90
18876;DHT22;9570;50.854;13.778;2024-01-06T07:05:09;2.10;99.90
18876;DHT22;9570;50.854;13.778;2024-01-06T07:07:35;2.10;99.90
18876;DHT22;9570;50.854;13.778;2024-01-06T07:10:01;2.10;99.90
18876;DHT22;9570;50.854;13.778;2024-01-06T07:12:28;2.20;99.90
18876;DHT22;9570;50.854;13.778;2024-01-06T07:14:53;2.10;99.90
18876;DHT22;9570;50.854;13.778;2024-01-06T07:17:19;2.20;99.90
18876;DHT22;9570;50.854;13.778;2024-01-06T07:19:44;2.20;99.90
18876;DHT22;9570;50.854;13.778;2024-01-06T07:22:10;2.20;99.90
18876;DHT22;9570;50.854;13.778;2024-01-06T07:24:36;2.20;99.90
18876;DHT22;9570;50.854;13.778;2024-01-06T07:27:02;2.30;99.90
18876;DHT22;9570;50.854;13.778;2024-01-06T07:29:28;2.30;99.90
18876;DHT22;9570;50.854;13.778;2024-01-06T07:31:54;2.30;99.90
18876;DHT22;9570;50.854;13.778;2024-01-06T07:34:19;2.30;99.90
18876;DHT22;9570;50.854;13.778;2024-01-06T07:36:45;2.40;99.90
18876;DHT22;9570;50.854;13.778;2024-01-06T07:39:10;2.40;99.90
18876;DHT22;9570;50.854;13.778;2024-01-06T07:41:36;2.40;99.90
18876;DHT22;9570;50.854;13.778;2024-01-06T07:44:01;2.40;99.90
18876;DHT22;9570;50.854;13.778;2024-01-06T07:46:28;2.40;99.90
18876;DHT22;9570;50.854;13.778;2024-01-06T07:48:54;2.40;99.90
18876;DHT22;9570;50.854;13.778;2024-01-06T07:51:19;2.50;99.90
18876;DHT22;9570;50.854;13.778;2024-01-06T07:53:45;2.50;99.90
18876;DHT22;9570;50.854;13.778;2024-01-06T07:56:10;2.50;99.90
18876;DHT22;9570;50.854;13.778;2024-01-06T07:58:36;2.50;99.90
18876;DHT22;9570;50.854;13.778;2024-01-06T08:01:01;2.60;99.90
18876;DHT22;9570;50.854;13.778;2024-01-06T08:03:28;2.60;99.90
18876;DHT22;9570;50.854;13.778;2024-01-06T08:05:53;2.70;99.90
18876;DHT22;9570;50.854;13.778;2024-01-06T08:08:19;2.70;99.90
18876;DHT22;9570;50.854;13.778;2024-01-06T08:10:45;2.70;99.90
18876;DHT22;9570;50.854;13.778;2024-01-06T08:13:11;2.80;99.90
18876;DHT22;9570;50.854;13.778;2024-01-06T08:15:36;2.80;99.90
18876;DHT22;9570;50.854;13.778;2024-01-06T08:18:02;2.80;99.90
18876;DHT22;9570;50.854;13.778;2024-01-06T08:20:28;2.90;99.90
18876;DHT22;9570;50.854;13.778;2024-01-06T08:22:54;2.80;99.90
18876;DHT22;9570;50.854;13.778;2024-01-06T08:25:20;2.90;99.90
18876;DHT22;9570;50.854;13.778;2024-01-06T08:27:45;2.90;99.90
18876;DHT22;9570;50.854;13.778;2024-01-06T08:30:11;2.90;99.90
18876;DHT22;9570;50.854;13.778;2024-01-06T08:32:37;3.00;99.90
18876;DHT22;9570;50.854;13.778;2024-01-06T08:35:03;2.90;99.90
18876;DHT22;9570;50.854;13.778;2024-01-06T08:37:29;3.00;99.90
18876;DHT22;9570;50.854;13.778;2024-01-06T08:39:55;3.00;99.90
18876;DHT22;9570;50.854;13.778;2024-01-06T08:42:20;3.10;99.90
18876;DHT22;9570;50.854;13.778;2024-01-06T08:44:45;3.10;99.90
18876;DHT22;9570;50.854;13.778;2024-01-06T08:47:11;3.20;99.90
18876;DHT22;9570;50.854;13.778;2024-01-06T08:49:37;3.20;99.90
18876;DHT22;9570;50.854;13.778;2024-01-06T08:52:03;3.20;99.90
18876;DHT22;9570;50.854;13.778;2024-01-06T08:54:29;3.30;99.90
18876;DHT22;9570;50.854;13.778;2024-01-06T08:56:54;3.30;99.90
18876;DHT22;9570;50.854;13.778;2024-01-06T08:59:20;3.30;99.90
18876;DHT22;9570;50.854;13.778;2024-01-06T09:01:46;3.30;99.90
18876;DHT22;9570;50.854;13.778;2024-01-06T09:04:11;3.40;99.90
18876;DHT22;9570;50.854;13.778;2024-01-06T09:06:38;3.30;99.90
18876;DHT22;9570;50.854;13.778;2024-01-06T09:09:04;3.40;99.90
18876;DHT22;9570;50.854;13.778;2024-01-06T09:11:30;3.40;99.90
18876;DHT22;9570;50.854;13.778;2024-01-06T09:13:55;3.50;99.90
18876;DHT22;9570;50.854;13.778;2024-01-06T09:16:21;3.50;99.90
18876;DHT22;9570;50.854;13.778;2024-01-06T09:18:47;3.50;99.90
18876;DHT22;9570;50.854;13.778;2024-01-06T09:21:13;3.50;99.90
18876;DHT22;9570;50.854;13.778;2024-01-06T09:23:39;3.50;99.90
18876;DHT22;9570;50.854;13.778;2024-01-06T09:26:05;3.60;99.90
18876;DHT22;9570;50.854;13.778;2024-01-06T09:28:31;3.60;99.90
18876;DHT22;9570;50.854;13.778;2024-01-06T09:30:56;3.70;99.90
18876;DHT22;9570;50.854;13.778;2024-01-06T09:33:22;3.80;99.90
18876;DHT22;9570;50.854;13.778;2024-01-06T09:35:48;3.90;99.90
18876;DHT22;9570;50.854;13.778;2024-01-06T09:38:13;3.90;99.90
18876;DHT22;9570;50.854;13.778;2024-01-06T09:40:44;4.00;99.90
18876;DHT22;9570;50.854;13.778;2024-01-06T09:43:10;4.00;99.90
18876;DHT22;9570;50.854;13.778;2024-01-06T09:45:37;4.10;99.90
18876;DHT22;9570;50.854;13.778;2024-01-06T09:48:10;4.20;99.90
18876;DHT22;9570;50.854;13.778;2024-01-06T09:50:36;4.30;99.90
18876;DHT22;9570;50.854;13.778;2024-01-06T09:53:03;4.40;99.90
18876;DHT22;9570;50.854;13.778;2024-01-06T09:55:31;4.50;99.90
18876;DHT22;9570;50.854;13.778;2024-01-06T09:57:57;4.50;99.90
18876;DHT22;9570;50.854;13.778;2024-01-06T10:00:22;4.60;99.90
18876;DHT22;9570;50.854;13.778;2024-01-06T10:02:48;4.70;99.90
18876;DHT22;9570;50.854;13.778;2024-01-06T10:05:15;4.70;99.90
18876;DHT22;9570;50.854;13.778;2024-01-06T10:07:42;4.80;99.90
18876;DHT22;9570;50.854;13.778;2024-01-06T10:10:09;4.80;99.90
18876;DHT22;9570;50.854;13.778;2024-01-06T10:12:37;4.90;99.90
18876;DHT22;9570;50.854;13.778;2024-01-06T10:15:04;4.90;99.90
18876;DHT22;9570;50.854;13.778;2024-01-06T10:17:30;4.90;99.90
18876;DHT22;9570;50.854;13.778;2024-01-06T10:19:55;5.00;99.90
18876;DHT22;9570;50.854;13.778;2024-01-06T10:22:22;5.00;99.90
18876;DHT22;9570;50.854;13.778;2024-01-06T10:24:47;4.90;99.90
18876;DHT22;9570;50.854;13.778;2024-01-06T10:27:13;4.90;99.90
18876;DHT22;9570;50.854;13.778;2024-01-06T10:29:38;4.90;99.90
18876;DHT22;9570;50.854;13.778;2024-01-06T10:32:04;5.00;99.90
18876;DHT22;9570;50.854;13.778;2024-01-06T10:34:30;5.00;99.90
18876;DHT22;9570;50.854;13.778;2024-01-06T10:36:58;5.00;99.90
18876;DHT22;9570;50.854;13.778;2024-01-06T10:39:23;5.00;99.90
18876;DHT22;9570;50.854;13.778;2024-01-06T10:41:49;5.10;99.90
18876;DHT22;9570;50.854;13.778;2024-01-06T10:44:15;5.10;99.90
18876;DHT22;9570;50.854;13.778;2024-01-06T10:46:41;5.10;99.90
18876;DHT22;9570;50.854;13.778;2024-01-06T10:49:08;5.10;99.90
18876;DHT22;9570;50.854;13.778;2024-01-06T10:51:37;5.20;99.90
18876;DHT22;9570;50.854;13.778;2024-01-06T10:54:02;5.30;99.90
18876;DHT22;9570;50.854;13.778;2024-01-06T10:56:29;5.40;99.90
18876;DHT22;9570;50.854;13.778;2024-01-06T10:58:56;5.40;99.90
18876;DHT22;9570;50.854;13.778;2024-01-06T11:01:24;5.40;99.90
18876;DHT22;9570;50.854;13.778;2024-01-06T11:03:50;5.40;99.90
18876;DHT22;9570;50.854;13.778;2024-01-06T11:06:19;5.40;99.90
18876;DHT22;9570;50.854;13.778;2024-01-06T11:11:20;5.50;99.90
18876;DHT22;9570;50.854;13.778;2024-01-06T11:13:46;5.50;99.90
18876;DHT22;9570;50.854;13.778;2024-01-06T11:16:33;5.50;99.90
18876;DHT22;9570;50.854;13.778;2024-01-06T11:18:59;5.50;99.90
18876;DHT22;9570;50.854;13.778;2024-01-06T11:21:24;5.50;99.90
18876;DHT22;9570;50.854;13.778;2024-01-06T11:26:45;5.50;99.90
18876;DHT22;9570;50.854;13.778;2024-01-06T11:29:10;5.50;99.90
18876;DHT22;9570;50.854;13.778;2024-01-06T11:31:37;5.50;99.90
18876;DHT22;9570;50.854;13.778;2024-01-06T11:34:16;5.60;99.90
18876;DHT22;9570;50.854;13.778;2024-01-06T11:36:45;5.60;99.90
18876;DHT22;9570;50.854;13.778;2024-01-06T11:39:45;5.70;99.90
18876;DHT22;9570;50.854;13.778;2024-01-06T11:42:11;5.80;99.90
18876;DHT22;9570;50.854;13.778;2024-01-06T11:44:38;5.80;99.90
18876;DHT22;9570;50.854;13.778;2024-01-06T11:47:04;5.90;99.90
18876;DHT22;9570;50.854;13.778;2024-01-06T11:49:31;5.90;99.90
18876;DHT22;9570;50.854;13.778;2024-01-06T11:51:57;6.00;99.90
18876;DHT22;9570;50.854;13.778;2024-01-06T11:54:23;6.00;99.90
18876;DHT22;9570;50.854;13.778;2024-01-06T11:56:49;6.10;99.90
18876;DHT22;9570;50.854;13.778;2024-01-06T11:59:14;6.20;99.90
18876;DHT22;9570;50.854;13.778;2024-01-06T12:01:40;6.20;99.90
18876;DHT22;9570;50.854;13.778;2024-01-06T12:04:06;6.30;99.90
18876;DHT22;9570;50.854;13.778;2024-01-06T12:06:35;6.20;99.90
18876;DHT22;9570;50.854;13.778;2024-01-06T12:09:07;6.20;99.90
18876;DHT22;9570;50.854;13.778;2024-01-06T12:11:33;6.20;99.90
18876;DHT22;9570;50.854;13.778;2024-01-06T12:13:59;6.10;99.90
18876;DHT22;9570;50.854;13.778;2024-01-06T12:16:25;6.00;99.90
18876;DHT22;9570;50.854;13.778;2024-01-06T12:18:54;6.00;99.90
18876;DHT22;9570;50.854;13.778;2024-01-06T12:21:25;5.90;99.90
18876;DHT22;9570;50.854;13.778;2024-01-06T12:23:50;6.00;99.90
18876;DHT22;9570;50.854;13.778;2024-01-06T12:26:19;6.00;99.90
18876;DHT22;9570;50.854;13.778;2024-01-06T12:28:45;6.10;99.90
18876;DHT22;9570;50.854;13.778;2024-01-06T12:31:11;6.10;99.90
18876;DHT22;9570;50.854;13.778;2024-01-06T12:33:41;6.10;99.90
18876;DHT22;9570;50.854;13.778;2024-01-06T12:36:07;6.10;99.90
18876;DHT22;9570;50.854;13.778;2024-01-06T12:38:34;6.10;99.90
18876;DHT22;9570;50.854;13.778;2024-01-06T12:41:00;6.10;99.90
18876;DHT22;9570;50.854;13.778;2024-01-06T12:43:25;6.10;99.90
18876;DHT22;9570;50.854;13.778;2024-01-06T12:45:51;6.10;99.90
18876;DHT22;9570;50.854;13.778;2024-01-06T12:48:18;6.10;99.90
18876;DHT22;9570;50.854;13.778;2024-01-06T12:50:43;6.10;99.90
18876;DHT22;9570;50.854;13.778;2024-01-06T12:53:09;6.10;99.90
18876;DHT22;9570;50.854;13.778;2024-01-06T12:55:35;6.00;99.90
18876;DHT22;9570;50.854;13.778;2024-01-06T12:58:00;6.00;99.90
18876;DHT22;9570;50.854;13.778;2024-01-06T13:00:29;6.00;99.90
18876;DHT22;9570;50.854;13.778;2024-01-06T13:02:54;5.80;99.90
18876;DHT22;9570;50.854;13.778;2024-01-06T13:05:20;5.90;99.90
18876;DHT22;9570;50.854;13.778;2024-01-06T13:07:45;5.90;99.90
18876;DHT22;9570;50.854;13.778;2024-01-06T13:10:11;5.80;99.90
18876;DHT22;9570;50.854;13.778;2024-01-06T13:12:37;5.70;99.90
18876;DHT22;9570;50.854;13.778;2024-01-06T13:15:02;5.70;99.90
18876;DHT22;9570;50.854;13.778;2024-01-06T13:17:28;5.70;99.90
18876;DHT22;9570;50.854;13.778;2024-01-06T13:19:53;5.70;99.90
18876;DHT22;9570;50.854;13.778;2024-01-06T13:22:19;5.70;99.90
18876;DHT22;9570;50.854;13.778;2024-01-06T13:24:46;5.70;99.90
18876;DHT22;9570;50.854;13.778;2024-01-06T13:27:12;5.60;99.90
18876;DHT22;9570;50.854;13.778;2024-01-06T13:29:38;5.60;99.90
18876;DHT22;9570;50.854;13.778;2024-01-06T13:32:04;5.60;99.90
18876;DHT22;9570;50.854;13.778;2024-01-06T13:34:31;5.60;99.90
18876;DHT22;9570;50.854;13.778;2024-01-06T13:36:56;5.60;99.90
18876;DHT22;9570;50.854;13.778;2024-01-06T13:39:23;5.50;99.90
18876;DHT22;9570;50.854;13.778;2024-01-06T13:41:49;5.60;99.90
18876;DHT22;9570;50.854;13.778;2024-01-06T13:44:15;5.60;99.90
18876;DHT22;9570;50.854;13.778;2024-01-06T13:46:41;5.60;99.90
18876;DHT22;9570;50.854;13.778;2024-01-06T13:49:10;5.50;99.90
18876;DHT22;9570;50.854;13.778;2024-01-06T13:51:36;5.50;99.90
18876;DHT22;9570;50.854;13.778;2024-01-06T13:54:01;5.50;99.90
18876;DHT22;9570;50.854;13.778;2024-01-06T13:56:27;5.60;99.90
18876;DHT22;9570;50.854;13.778;2024-01-06T13:58:52;5.60;99.90
18876;DHT22;9570;50.854;13.778;2024-01-06T14:01:18;5.70;99.90
18876;DHT22;9570;50.854;13.778;2024-01-06T14:03:43;5.70;99.90
18876;DHT22;9570;50.854;13.778;2024-01-06T14:06:09;5.70;99.90
18876;DHT22;9570;50.854;13.778;2024-01-06T14:08:35;5.70;99.90
18876;DHT22;9570;50.854;13.778;2024-01-06T14:11:00;5.70;99.90
18876;DHT22;9570;50.854;13.778;2024-01-06T14:13:26;5.70;99.90
18876;DHT22;9570;50.854;13.778;2024-01-06T14:15:51;5.60;99.90
18876;DHT22;9570;50.854;13.778;2024-01-06T14:18:17;5.50;99.90
18876;DHT22;9570;50.854;13.778;2024-01-06T14:20:42;5.50;99.90
18876;DHT22;9570;50.854;13.778;2024-01-06T14:23:08;5.30;99.90
18876;DHT22;9570;50.854;13.778;2024-01-06T14:25:35;5.30;99.90
18876;DHT22;9570;50.854;13.778;2024-01-06T14:28:01;5.30;99.90
18876;DHT22;9570;50.854;13.778;2024-01-06T14:30:26;5.30;99.90
18876;DHT22;9570;50.854;13.778;2024-01-06T14:32:52;5.20;99.90
18876;DHT22;9570;50.854;13.778;2024-01-06T14:35:17;5.20;99.90
18876;DHT22;9570;50.854;13.778;2024-01-06T14:37:43;5.20;99.90
18876;DHT22;9570;50.854;13.778;2024-01-06T14:40:11;5.20;99.90
18876;DHT22;9570;50.854;13.778;2024-01-06T14:42:37;5.30;99.90
18876;DHT22;9570;50.854;13.778;2024-01-06T14:45:03;5.20;99.90
18876;DHT22;9570;50.854;13.778;2024-01-06T14:47:28;5.20;99.90
18876;DHT22;9570;50.854;13.778;2024-01-06T14:49:54;5.20;99.90
18876;DHT22;9570;50.854;13.778;2024-01-06T14:52:20;5.30;99.90
18876;DHT22;9570;50.854;13.778;2024-01-06T14:54:45;5.30;99.90
18876;DHT22;9570;50.854;13.778;2024-01-06T14:57:11;5.10;99.90
18876;DHT22;9570;50.854;13.778;2024-01-06T14:59:36;5.00;99.90
18876;DHT22;9570;50.854;13.778;2024-01-06T15:02:03;5.00;99.90
18876;DHT22;9570;50.854;13.778;2024-01-06T15:04:28;4.80;99.90
18876;DHT22;9570;50.854;13.778;2024-01-06T15:06:54;4.70;99.90
18876;DHT22;9570;50.854;13.778;2024-01-06T15:09:20;4.70;99.90
18876;DHT22;9570;50.854;13.778;2024-01-06T15:11:46;4.60;99.90
18876;DHT22;9570;50.854;13.778;2024-01-06T15:14:12;4.70;99.90
18876;DHT22;9570;50.854;13.778;2024-01-06T15:16:37;4.70;99.90
18876;DHT22;9570;50.854;13.778;2024-01-06T15:19:03;4.70;99.90
18876;DHT22;9570;50.854;13.778;2024-01-06T15:21:29;4.80;99.90
18876;DHT22;9570;50.854;13.778;2024-01-06T15:23:58;4.60;99.90
18876;DHT22;9570;50.854;13.778;2024-01-06T15:26:25;4.60;99.90
18876;DHT22;9570;50.854;13.778;2024-01-06T15:28:50;4.60;99.90
18876;DHT22;9570;50.854;13.778;2024-01-06T15:31:16;4.50;99.90
18876;DHT22;9570;50.854;13.778;2024-01-06T15:33:41;4.60;99.90
18876;DHT22;9570;50.854;13.778;2024-01-06T15:36:12;4.50;99.90
18876;DHT22;9570;50.854;13.778;2024-01-06T15:38:37;4.40;99.90
18876;DHT22;9570;50.854;13.778;2024-01-06T15:41:03;4.40;99.90
18876;DHT22;9570;50.854;13.778;2024-01-06T15:43:29;4.40;99.90